Wetterdaten: Montag, 10.05.2010
Datum Zeit Temp. A. Feuchte A. Luftdruck Regen Wind Richtung Richtung Sonnenschein UV Solar Windben
10.05.2010 00:00 9,9 C 80 % 1007,2 hPa 0,0 mm 4,8 km/h (1 Bft) N 360 0 min 0 UV-I 0 W/m 14,5 km/h (3 Bft)
10.05.2010 00:10 9,8 C 80 % 1007,1 hPa 0,0 mm 3,2 km/h (1 Bft) N 360 0 min 0 UV-I 0 W/m 11,3 km/h (2 Bft)
10.05.2010 00:20 9,8 C 81 % 1007,1 hPa 0,0 mm 1,6 km/h (1 Bft) N 360 0 min 0 UV-I 0 W/m 6,4 km/h (2 Bft)
10.05.2010 00:30 9,7 C 81 % 1007,1 hPa 0,0 mm 1,6 km/h (1 Bft) N 360 0 min 0 UV-I 0 W/m 9,7 km/h (2 Bft)
10.05.2010 00:40 9,6 C 81 % 1007,2 hPa 0,0 mm 3,2 km/h (1 Bft) N 360 0 min 0 UV-I 0 W/m 9,7 km/h (2 Bft)
10.05.2010 00:50 9,5 C 82 % 1007,2 hPa 0,0 mm 3,2 km/h (1 Bft) N 360 0 min 0 UV-I 0 W/m 8,0 km/h (2 Bft)
10.05.2010 01:00 9,4 C 82 % 1007,2 hPa 0,0 mm 3,2 km/h (1 Bft) N 360 0 min 0 UV-I 0 W/m 9,7 km/h (2 Bft)
10.05.2010 01:10 9,3 C 82 % 1007,2 hPa 0,0 mm 3,2 km/h (1 Bft) N 360 0 min 0 UV-I 0 W/m 9,7 km/h (2 Bft)
10.05.2010 01:20 9,2 C 82 % 1007,1 hPa 0,0 mm 1,6 km/h (1 Bft) N 360 0 min 0 UV-I 0 W/m 9,7 km/h (2 Bft)
10.05.2010 01:30 9,1 C 83 % 1007,1 hPa 0,0 mm 1,6 km/h (1 Bft) N 360 0 min 0 UV-I 0 W/m 8,0 km/h (2 Bft)
10.05.2010 01:40 8,9 C 83 % 1007,1 hPa 0,0 mm 3,2 km/h (1 Bft) N 360 0 min 0 UV-I 0 W/m 12,9 km/h (3 Bft)
10.05.2010 01:50 8,8 C 83 % 1007,0 hPa 0,0 mm 4,8 km/h (1 Bft) N 360 0 min 0 UV-I 0 W/m 11,3 km/h (2 Bft)
10.05.2010 02:00 8,7 C 84 % 1007,0 hPa 0,0 mm 1,6 km/h (1 Bft) N 360 0 min 0 UV-I 0 W/m 9,7 km/h (2 Bft)
10.05.2010 02:10 8,7 C 84 % 1007,0 hPa 0,0 mm 1,6 km/h (1 Bft) N 360 0 min 0 UV-I 0 W/m 8,0 km/h (2 Bft)
10.05.2010 02:20 8,6 C 84 % 1006,9 hPa 0,0 mm 3,2 km/h (1 Bft) N 360 0 min 0 UV-I 0 W/m 9,7 km/h (2 Bft)
10.05.2010 02:30 8,4 C 84 % 1006,9 hPa 0,0 mm 3,2 km/h (1 Bft) N 360 0 min 0 UV-I 0 W/m 9,7 km/h (2 Bft)
10.05.2010 02:40 8,3 C 84 % 1006,7 hPa 0,0 mm 3,2 km/h (1 Bft) N 360 0 min 0 UV-I 0 W/m 9,7 km/h (2 Bft)
10.05.2010 02:50 8,2 C 84 % 1006,8 hPa 0,0 mm 3,2 km/h (1 Bft) N 360 0 min 0 UV-I 0 W/m 16,1 km/h (3 Bft)
10.05.2010 03:00 8,1 C 84 % 1006,7 hPa 0,0 mm 4,8 km/h (1 Bft) N 360 0 min 0 UV-I 0 W/m 14,5 km/h (3 Bft)
10.05.2010 03:10 7,9 C 84 % 1006,8 hPa 0,0 mm 3,2 km/h (1 Bft) N 360 0 min 0 UV-I 0 W/m 11,3 km/h (2 Bft)
10.05.2010 03:20 7,9 C 84 % 1006,9 hPa 0,0 mm 1,6 km/h (1 Bft) N 360 0 min 0 UV-I 0 W/m 8,0 km/h (2 Bft)
10.05.2010 03:30 7,9 C 84 % 1007,0 hPa 0,0 mm 1,6 km/h (1 Bft) N 360 0 min 0 UV-I 0 W/m 6,4 km/h (2 Bft)
10.05.2010 03:40 7,9 C 83 % 1006,8 hPa 0,0 mm 1,6 km/h (1 Bft) N 360 0 min 0 UV-I 0 W/m 6,4 km/h (2 Bft)
10.05.2010 03:50 7,8 C 83 % 1006,9 hPa 0,0 mm 3,2 km/h (1 Bft) N 360 0 min 0 UV-I 0 W/m 9,7 km/h (2 Bft)
10.05.2010 04:00 7,8 C 83 % 1006,8 hPa 0,0 mm 3,2 km/h (1 Bft) N 360 0 min 0 UV-I 0 W/m 9,7 km/h (2 Bft)
10.05.2010 04:10 7,7 C 83 % 1006,8 hPa 0,0 mm 4,8 km/h (1 Bft) N 360 0 min 0 UV-I 0 W/m 14,5 km/h (3 Bft)
10.05.2010 04:20 7,6 C 83 % 1007,0 hPa 0,0 mm 1,6 km/h (1 Bft) N-NO 22 0 min 0 UV-I 0 W/m 16,1 km/h (3 Bft)
10.05.2010 04:30 7,5 C 83 % 1007,0 hPa 0,0 mm 3,2 km/h (1 Bft) N-NO 22 0 min 0 UV-I 0 W/m 14,5 km/h (3 Bft)
10.05.2010 04:40 7,4 C 83 % 1007,1 hPa 0,0 mm 4,8 km/h (1 Bft) N 360 0 min 0 UV-I 0 W/m 17,7 km/h (3 Bft)
10.05.2010 04:50 7,4 C 83 % 1007,1 hPa 0,0 mm 3,2 km/h (1 Bft) N 360 0 min 0 UV-I 0 W/m 9,7 km/h (2 Bft)
10.05.2010 05:00 7,3 C 83 % 1007,1 hPa 0,0 mm 3,2 km/h (1 Bft) N 360 0 min 0 UV-I 0 W/m 14,5 km/h (3 Bft)
10.05.2010 05:10 7,3 C 83 % 1007,1 hPa 0,0 mm 4,8 km/h (1 Bft) N-NO 22 0 min 0 UV-I 0 W/m 16,1 km/h (3 Bft)
10.05.2010 05:20 7,2 C 83 % 1007,0 hPa 0,0 mm 3,2 km/h (1 Bft) N-NO 22 0 min 0 UV-I 0 W/m 11,3 km/h (2 Bft)
10.05.2010 05:30 7,2 C 82 % 1007,0 hPa 0,0 mm 3,2 km/h (1 Bft) N 360 0 min 0 UV-I 0 W/m 16,1 km/h (3 Bft)
10.05.2010 05:40 7,1 C 82 % 1007,2 hPa 0,0 mm 4,8 km/h (1 Bft) N 360 0 min 0 UV-I 0 W/m 16,1 km/h (3 Bft)
10.05.2010 05:50 7,0 C 82 % 1007,1 hPa 0,0 mm 3,2 km/h (1 Bft) N-NO 22 0 min 0 UV-I 0 W/m 11,3 km/h (2 Bft)
10.05.2010 06:00 6,9 C 81 % 1007,3 hPa 0,0 mm 4,8 km/h (1 Bft) N 360 0 min 0 UV-I 0 W/m 12,9 km/h (3 Bft)
10.05.2010 06:10 6,9 C 81 % 1007,3 hPa 0,0 mm 3,2 km/h (1 Bft) N 360 0 min 0 UV-I 7 W/m 11,3 km/h (2 Bft)
10.05.2010 06:20 6,8 C 81 % 1007,3 hPa 0,0 mm 4,8 km/h (1 Bft) N 360 0 min 0 UV-I 11 W/m 11,3 km/h (2 Bft)
10.05.2010 06:30 6,9 C 81 % 1007,3 hPa 0,0 mm 3,2 km/h (1 Bft) N 360 0 min 0 UV-I 14 W/m 9,7 km/h (2 Bft)
10.05.2010 06:40 6,9 C 81 % 1007,5 hPa 0,0 mm 1,6 km/h (1 Bft) N 360 0 min 0 UV-I 18 W/m 6,4 km/h (2 Bft)
10.05.2010 06:50 6,9 C 81 % 1007,6 hPa 0,0 mm 0,0 km/h (0 Bft) N 360 0 min 0 UV-I 23 W/m 4,8 km/h (1 Bft)
10.05.2010 07:00 6,9 C 81 % 1007,8 hPa 0,0 mm 3,2 km/h (1 Bft) N 360 0 min 0 UV-I 40 W/m 9,7 km/h (2 Bft)
10.05.2010 07:10 6,9 C 80 % 1007,9 hPa 0,0 mm 3,2 km/h (1 Bft) N 360 0 min 0 UV-I 44 W/m 11,3 km/h (2 Bft)
10.05.2010 07:20 7,0 C 80 % 1007,9 hPa 0,0 mm 3,2 km/h (1 Bft) N 360 0 min 0 UV-I 47 W/m 8,0 km/h (2 Bft)
10.05.2010 07:30 7,0 C 80 % 1007,8 hPa 0,0 mm 3,2 km/h (1 Bft) N 360 0 min 0 UV-I 53 W/m 8,0 km/h (2 Bft)
10.05.2010 07:40 7,1 C 80 % 1007,9 hPa 0,0 mm 3,2 km/h (1 Bft) N 360 0 min 0 UV-I 60 W/m 9,7 km/h (2 Bft)
10.05.2010 07:50 7,1 C 80 % 1008,0 hPa 0,0 mm 3,2 km/h (1 Bft) N 360 0 min 0 UV-I 72 W/m 16,1 km/h (3 Bft)
10.05.2010 08:00 7,1 C 80 % 1008,1 hPa 0,0 mm 0,8 km/h (0 Bft) N 10 0 min 0 UV-I 65 W/m 3,2 km/h (1 Bft)
10.05.2010 08:10 7,1 C 80 % 1008,1 hPa 0,0 mm 3,2 km/h (1 Bft) N 360 0 min 0 UV-I 88 W/m 11,3 km/h (2 Bft)
10.05.2010 08:20 7,1 C 80 % 1008,2 hPa 0,0 mm 4,8 km/h (1 Bft) N-NO 22 0 min 1 UV-I 95 W/m 11,3 km/h (2 Bft)
10.05.2010 08:30 7,1 C 80 % 1008,1 hPa 0,0 mm 1,6 km/h (1 Bft) N-NO 22 0 min 1 UV-I 105 W/m 8,0 km/h (2 Bft)
10.05.2010 08:40 7,2 C 80 % 1008,2 hPa 0,0 mm 3,2 km/h (1 Bft) N-NO 22 0 min 1 UV-I 116 W/m 11,3 km/h (2 Bft)
10.05.2010 08:50 7,2 C 81 % 1008,3 hPa 0,0 mm 3,2 km/h (1 Bft) N-NO 22 0 min 1 UV-I 105 W/m 11,3 km/h (2 Bft)
10.05.2010 09:00 7,1 C 80 % 1008,1 hPa 0,0 mm 4,8 km/h (1 Bft) N-NO 22 0 min 1 UV-I 142 W/m 14,5 km/h (3 Bft)
10.05.2010 09:10 7,2 C 80 % 1008,1 hPa 0,0 mm 4,8 km/h (1 Bft) N 360 0 min 1 UV-I 160 W/m 17,7 km/h (3 Bft)
10.05.2010 09:20 7,3 C 80 % 1008,2 hPa 0,0 mm 3,2 km/h (1 Bft) N 360 0 min 1 UV-I 171 W/m 12,9 km/h (3 Bft)
10.05.2010 09:30 7,3 C 80 % 1008,2 hPa 0,0 mm 3,2 km/h (1 Bft) N 360 0 min 1 UV-I 149 W/m 14,5 km/h (3 Bft)
10.05.2010 09:40 7,6 C 79 % 1008,2 hPa 0,0 mm 4,8 km/h (1 Bft) N-NO 22 0 min 1 UV-I 193 W/m 11,3 km/h (2 Bft)
10.05.2010 09:50 7,7 C 77 % 1008,4 hPa 0,0 mm 4,8 km/h (1 Bft) N 360 0 min 1 UV-I 227 W/m 11,3 km/h (2 Bft)
10.05.2010 10:00 7,8 C 77 % 1008,4 hPa 0,0 mm 3,2 km/h (1 Bft) N-NO 22 0 min 1 UV-I 246 W/m 12,9 km/h (3 Bft)
10.05.2010 10:10 7,9 C 78 % 1008,5 hPa 0,0 mm 3,2 km/h (1 Bft) N-NO 22 0 min 1 UV-I 218 W/m 6,4 km/h (2 Bft)
10.05.2010 10:20 8,0 C 78 % 1008,5 hPa 0,0 mm 1,6 km/h (1 Bft) N-NO 22 0 min 2 UV-I 246 W/m 8,0 km/h (2 Bft)
10.05.2010 10:30 7,9 C 78 % 1008,5 hPa 0,0 mm 1,6 km/h (1 Bft) N-NO 22 0 min 2 UV-I 287 W/m 6,4 km/h (2 Bft)
10.05.2010 10:40 8,3 C 75 % 1008,7 hPa 0,0 mm 3,2 km/h (1 Bft) N-NO 22 0 min 2 UV-I 260 W/m 11,3 km/h (2 Bft)
10.05.2010 10:50 8,2 C 74 % 1008,7 hPa 0,0 mm 4,8 km/h (1 Bft) N-NO 22 0 min 2 UV-I 309 W/m 14,5 km/h (3 Bft)
10.05.2010 11:00 8,5 C 72 % 1008,7 hPa 0,0 mm 4,8 km/h (1 Bft) N 360 0 min 2 UV-I 306 W/m 11,3 km/h (2 Bft)
10.05.2010 11:10 8,5 C 71 % 1008,7 hPa 0,0 mm 3,2 km/h (1 Bft) N 360 10 min 3 UV-I 439 W/m 9,7 km/h (2 Bft)
10.05.2010 11:20 8,9 C 71 % 1008,8 hPa 0,0 mm 3,2 km/h (1 Bft) N-NO 22 10 min 3 UV-I 446 W/m 9,7 km/h (2 Bft)
10.05.2010 11:30 8,8 C 72 % 1008,8 hPa 0,0 mm 1,6 km/h (1 Bft) N 360 0 min 3 UV-I 394 W/m 9,7 km/h (2 Bft)
10.05.2010 11:40 8,4 C 71 % 1008,8 hPa 0,0 mm 3,2 km/h (1 Bft) N 360 0 min 2 UV-I 308 W/m 14,5 km/h (3 Bft)
10.05.2010 11:50 8,4 C 72 % 1008,8 hPa 0,0 mm 3,2 km/h (1 Bft) N 360 0 min 2 UV-I 253 W/m 9,7 km/h (2 Bft)
10.05.2010 12:00 8,7 C 71 % 1008,7 hPa 0,0 mm 3,2 km/h (1 Bft) N 360 0 min 2 UV-I 332 W/m 9,7 km/h (2 Bft)
10.05.2010 12:10 8,9 C 70 % 1008,7 hPa 0,0 mm 1,6 km/h (1 Bft) N 360 0 min 3 UV-I 390 W/m 11,3 km/h (2 Bft)
10.05.2010 12:20 8,8 C 71 % 1008,7 hPa 0,0 mm 1,6 km/h (1 Bft) N 360 0 min 3 UV-I 394 W/m 8,0 km/h (2 Bft)
10.05.2010 12:30 9,2 C 69 % 1008,7 hPa 0,0 mm 3,2 km/h (1 Bft) N 360 0 min 3 UV-I 434 W/m 9,7 km/h (2 Bft)
10.05.2010 12:40 9,5 C 68 % 1008,7 hPa 0,0 mm 3,2 km/h (1 Bft) N 360 10 min 3 UV-I 462 W/m 11,3 km/h (2 Bft)
10.05.2010 12:50 9,8 C 67 % 1008,7 hPa 0,0 mm 4,8 km/h (1 Bft) N 360 10 min 3 UV-I 478 W/m 14,5 km/h (3 Bft)
10.05.2010 13:00 9,4 C 68 % 1008,8 hPa 0,0 mm 1,6 km/h (1 Bft) N 360 10 min 3 UV-I 519 W/m 9,7 km/h (2 Bft)
10.05.2010 13:10 9,7 C 67 % 1008,7 hPa 0,0 mm 1,6 km/h (1 Bft) N 360 10 min 4 UV-I 621 W/m 9,7 km/h (2 Bft)
10.05.2010 13:20 9,7 C 65 % 1008,7 hPa 0,0 mm 3,2 km/h (1 Bft) N-NW 337 10 min 4 UV-I 640 W/m 14,5 km/h (3 Bft)
10.05.2010 13:30 9,9 C 66 % 1008,8 hPa 0,0 mm 1,6 km/h (1 Bft) N-NW 337 10 min 4 UV-I 629 W/m 6,4 km/h (2 Bft)
10.05.2010 13:40 9,8 C 66 % 1008,8 hPa 0,0 mm 1,6 km/h (1 Bft) N-NW 337 0 min 3 UV-I 429 W/m 9,7 km/h (2 Bft)
10.05.2010 13:50 10,0 C 65 % 1008,7 hPa 0,0 mm 3,2 km/h (1 Bft) N-NW 337 0 min 3 UV-I 397 W/m 9,7 km/h (2 Bft)
10.05.2010 14:00 9,9 C 66 % 1008,7 hPa 0,0 mm 1,6 km/h (1 Bft) N-NW 337 0 min 3 UV-I 376 W/m 8,0 km/h (2 Bft)
10.05.2010 14:10 9,9 C 66 % 1008,6 hPa 0,0 mm 1,6 km/h (1 Bft) N-NW 337 0 min 3 UV-I 369 W/m 8,0 km/h (2 Bft)
10.05.2010 14:20 10,3 C 67 % 1008,7 hPa 0,0 mm 1,6 km/h (1 Bft) N-NW 337 0 min 3 UV-I 352 W/m 9,7 km/h (2 Bft)
10.05.2010 14:30 10,1 C 68 % 1008,7 hPa 0,0 mm 1,6 km/h (1 Bft) N-NW 337 0 min 2 UV-I 283 W/m 8,0 km/h (2 Bft)
10.05.2010 14:40 10,1 C 67 % 1008,7 hPa 0,0 mm 0,0 km/h (0 Bft) N-NW 337 0 min 2 UV-I 281 W/m 8,0 km/h (2 Bft)
10.05.2010 14:50 9,8 C 67 % 1008,7 hPa 0,0 mm 1,6 km/h (1 Bft) N-NW 337 0 min 2 UV-I 255 W/m 4,8 km/h (1 Bft)
10.05.2010 15:00 10,2 C 67 % 1008,7 hPa 0,0 mm 1,6 km/h (1 Bft) N-NW 337 0 min 2 UV-I 304 W/m 9,7 km/h (2 Bft)
10.05.2010 15:10 10,4 C 66 % 1008,7 hPa 0,0 mm 1,6 km/h (1 Bft) N-NW 337 0 min 2 UV-I 309 W/m 8,0 km/h (2 Bft)
10.05.2010 15:20 10,4 C 67 % 1008,7 hPa 0,0 mm 1,6 km/h (1 Bft) N-NW 337 0 min 2 UV-I 360 W/m 6,4 km/h (2 Bft)
10.05.2010 15:30 10,5 C 65 % 1008,7 hPa 0,0 mm 1,6 km/h (1 Bft) N-NW 337 0 min 2 UV-I 338 W/m 8,0 km/h (2 Bft)
10.05.2010 15:40 10,4 C 65 % 1008,7 hPa 0,0 mm 1,6 km/h (1 Bft) N-NW 337 0 min 2 UV-I 229 W/m 6,4 km/h (2 Bft)
10.05.2010 15:50 10,4 C 65 % 1008,8 hPa 0,0 mm 1,6 km/h (1 Bft) N-NW 337 0 min 2 UV-I 216 W/m 8,0 km/h (2 Bft)
10.05.2010 16:00 10,3 C 65 % 1008,9 hPa 0,0 mm 2,1 km/h (1 Bft) N-NW 345 0 min 1 UV-I 177 W/m 4,8 km/h (1 Bft)
10.05.2010 16:10 10,3 C 66 % 1008,8 hPa 0,0 mm 1,6 km/h (1 Bft) N-NW 337 0 min 1 UV-I 172 W/m 6,4 km/h (2 Bft)
10.05.2010 16:20 10,3 C 66 % 1008,9 hPa 0,0 mm 1,6 km/h (1 Bft) N-NW 337 0 min 1 UV-I 186 W/m 6,4 km/h (2 Bft)
10.05.2010 16:30 10,4 C 66 % 1008,9 hPa 0,0 mm 0,0 km/h (0 Bft) N-NW 337 0 min 1 UV-I 167 W/m 3,2 km/h (1 Bft)
10.05.2010 16:40 10,3 C 65 % 1008,8 hPa 0,0 mm 0,0 km/h (0 Bft) N-NW 337 0 min 1 UV-I 229 W/m 6,4 km/h (2 Bft)
10.05.2010 16:50 10,6 C 64 % 1008,8 hPa 0,0 mm 1,6 km/h (1 Bft) N-NW 337 0 min 1 UV-I 258 W/m 6,4 km/h (2 Bft)
10.05.2010 17:00 10,8 C 65 % 1008,8 hPa 0,0 mm 0,0 km/h (0 Bft) N-NW 337 0 min 1 UV-I 225 W/m 3,2 km/h (1 Bft)
10.05.2010 17:10 10,4 C 68 % 1008,8 hPa 0,0 mm 0,0 km/h (0 Bft) N-NW 337 0 min 1 UV-I 221 W/m 4,8 km/h (1 Bft)
10.05.2010 17:20 10,7 C 68 % 1008,7 hPa 0,0 mm 0,0 km/h (0 Bft) N-NW 337 0 min 1 UV-I 223 W/m 3,2 km/h (1 Bft)
10.05.2010 17:30 10,8 C 65 % 1008,8 hPa 0,0 mm 0,0 km/h (0 Bft) N-NW 337 0 min 1 UV-I 195 W/m 4,8 km/h (1 Bft)
10.05.2010 17:40 10,7 C 66 % 1008,9 hPa 0,0 mm 1,6 km/h (1 Bft) N-NW 337 0 min 1 UV-I 135 W/m 8,0 km/h (2 Bft)
10.05.2010 17:50 10,7 C 66 % 1008,9 hPa 0,0 mm 1,6 km/h (1 Bft) N-NW 337 0 min 1 UV-I 107 W/m 6,4 km/h (2 Bft)
10.05.2010 18:00 10,6 C 65 % 1008,9 hPa 0,0 mm 1,6 km/h (1 Bft) N-NW 337 0 min 1 UV-I 97 W/m 8,0 km/h (2 Bft)
10.05.2010 18:10 10,4 C 66 % 1008,9 hPa 0,0 mm 1,6 km/h (1 Bft) N-NW 337 0 min 0 UV-I 79 W/m 8,0 km/h (2 Bft)
10.05.2010 18:20 10,3 C 65 % 1008,9 hPa 0,0 mm 1,6 km/h (1 Bft) N-NW 337 0 min 0 UV-I 77 W/m 8,0 km/h (2 Bft)
10.05.2010 18:30 10,2 C 65 % 1008,7 hPa 0,0 mm 0,0 km/h (0 Bft) N-NW 337 0 min 0 UV-I 74 W/m 4,8 km/h (1 Bft)
10.05.2010 18:40 10,2 C 66 % 1008,8 hPa 0,0 mm 0,0 km/h (0 Bft) N-NW 337 0 min 0 UV-I 72 W/m 3,2 km/h (1 Bft)
10.05.2010 18:50 10,2 C 65 % 1008,8 hPa 0,0 mm 1,6 km/h (1 Bft) N-NW 337 0 min 0 UV-I 72 W/m 6,4 km/h (2 Bft)
10.05.2010 19:00 10,3 C 65 % 1008,7 hPa 0,0 mm 1,6 km/h (1 Bft) N-NW 337 0 min 0 UV-I 76 W/m 4,8 km/h (1 Bft)
10.05.2010 19:10 10,2 C 66 % 1008,8 hPa 0,0 mm 1,6 km/h (1 Bft) N-NW 337 0 min 0 UV-I 62 W/m 8,0 km/h (2 Bft)
10.05.2010 19:20 10,1 C 65 % 1008,8 hPa 0,0 mm 3,2 km/h (1 Bft) N-NW 337 0 min 0 UV-I 40 W/m 8,0 km/h (2 Bft)
10.05.2010 19:30 9,9 C 66 % 1008,8 hPa 0,0 mm 3,2 km/h (1 Bft) N-NW 337 0 min 0 UV-I 28 W/m 9,7 km/h (2 Bft)
10.05.2010 19:40 9,8 C 66 % 1008,9 hPa 0,0 mm 3,2 km/h (1 Bft) N-NW 337 0 min 0 UV-I 28 W/m 9,7 km/h (2 Bft)
10.05.2010 19:50 9,7 C 69 % 1008,9 hPa 0,0 mm 1,6 km/h (1 Bft) N-NW 337 0 min 0 UV-I 33 W/m 8,0 km/h (2 Bft)
10.05.2010 20:00 9,6 C 67 % 1008,9 hPa 0,0 mm 3,2 km/h (1 Bft) N 360 0 min 0 UV-I 30 W/m 9,7 km/h (2 Bft)
10.05.2010 20:10 9,6 C 68 % 1009,0 hPa 0,0 mm 1,6 km/h (1 Bft) N 360 0 min 0 UV-I 21 W/m 9,7 km/h (2 Bft)
10.05.2010 20:20 9,4 C 67 % 1009,0 hPa 0,0 mm 3,2 km/h (1 Bft) N 360 0 min 0 UV-I 16 W/m 9,7 km/h (2 Bft)
10.05.2010 20:30 9,3 C 68 % 1009,1 hPa 0,0 mm 3,2 km/h (1 Bft) N 360 0 min 0 UV-I 12 W/m 11,3 km/h (2 Bft)
10.05.2010 20:40 9,2 C 68 % 1009,2 hPa 0,0 mm 3,2 km/h (1 Bft) N-NO 22 0 min 0 UV-I 7 W/m 11,3 km/h (2 Bft)
10.05.2010 20:50 9,1 C 68 % 1009,2 hPa 0,0 mm 3,2 km/h (1 Bft) N 360 0 min 0 UV-I 5 W/m 11,3 km/h (2 Bft)
10.05.2010 21:00 9,0 C 68 % 1009,2 hPa 0,0 mm 3,2 km/h (1 Bft) N-NO 22 0 min 0 UV-I 0 W/m 9,7 km/h (2 Bft)
10.05.2010 21:10 8,9 C 68 % 1009,3 hPa 0,0 mm 4,8 km/h (1 Bft) N 360 0 min 0 UV-I 0 W/m 14,5 km/h (3 Bft)
10.05.2010 21:20 8,8 C 69 % 1009,4 hPa 0,0 mm 3,2 km/h (1 Bft) N 360 0 min 0 UV-I 0 W/m 11,3 km/h (2 Bft)
10.05.2010 21:30 8,8 C 70 % 1009,5 hPa 0,0 mm 1,6 km/h (1 Bft) N 360 0 min 0 UV-I 0 W/m 6,4 km/h (2 Bft)
10.05.2010 21:40 8,7 C 69 % 1009,5 hPa 0,0 mm 1,6 km/h (1 Bft) N 360 0 min 0 UV-I 0 W/m 8,0 km/h (2 Bft)
10.05.2010 21:50 8,7 C 70 % 1009,5 hPa 0,0 mm 1,6 km/h (1 Bft) N 360 0 min 0 UV-I 0 W/m 4,8 km/h (1 Bft)
10.05.2010 22:00 8,6 C 71 % 1009,5 hPa 0,0 mm 1,6 km/h (1 Bft) N 360 0 min 0 UV-I 0 W/m 4,8 km/h (1 Bft)
10.05.2010 22:10 8,6 C 70 % 1009,5 hPa 0,0 mm 1,6 km/h (1 Bft) N 360 0 min 0 UV-I 0 W/m 8,0 km/h (2 Bft)
10.05.2010 22:20 8,5 C 71 % 1009,5 hPa 0,0 mm 1,6 km/h (1 Bft) N 360 0 min 0 UV-I 0 W/m 8,0 km/h (2 Bft)
10.05.2010 22:30 8,4 C 71 % 1009,4 hPa 0,0 mm 3,2 km/h (1 Bft) N 360 0 min 0 UV-I 0 W/m 6,4 km/h (2 Bft)
10.05.2010 22:40 8,3 C 72 % 1009,5 hPa 0,0 mm 1,6 km/h (1 Bft) N 360 0 min 0 UV-I 0 W/m 8,0 km/h (2 Bft)
10.05.2010 22:50 8,3 C 72 % 1009,4 hPa 0,0 mm 1,6 km/h (1 Bft) N 360 0 min 0 UV-I 0 W/m 8,0 km/h (2 Bft)
10.05.2010 23:00 8,3 C 72 % 1009,5 hPa 0,0 mm 3,2 km/h (1 Bft) N 360 0 min 0 UV-I 0 W/m 8,0 km/h (2 Bft)
10.05.2010 23:10 8,2 C 73 % 1009,7 hPa 0,0 mm 3,2 km/h (1 Bft) N 360 0 min 0 UV-I 0 W/m 9,7 km/h (2 Bft)
10.05.2010 23:20 8,2 C 73 % 1009,6 hPa 0,0 mm 1,6 km/h (1 Bft) N 360 0 min 0 UV-I 0 W/m 8,0 km/h (2 Bft)
10.05.2010 23:30 8,2 C 74 % 1009,7 hPa 0,0 mm 1,6 km/h (1 Bft) N 360 0 min 0 UV-I 0 W/m 4,8 km/h (1 Bft)
10.05.2010 23:40 8,1 C 75 % 1009,7 hPa 0,0 mm 1,6 km/h (1 Bft) N 360 0 min 0 UV-I 0 W/m 6,4 km/h (2 Bft)
10.05.2010 23:50 8,1 C 74 % 1009,8 hPa 0,0 mm 1,6 km/h (1 Bft) N 360 0 min 0 UV-I 0 W/m 4,8 km/h (1 Bft)
_ Min-Zeit 06:00 16:50 02:40 - 06:50 - - - - - 08:00
Minimum _ 6,8 C 64 % 1006,7 hPa - 0,0 km/h (0 Bft) - - - - - 3,2 km/h (1 Bft)
_ Max-Zeit 17:30 02:00 23:50 00:00 00:00 - - 11:10 13:20 13:20 04:40
Maximum _ 11,0 C 84 % 1009,8 hPa 0,0 mm 4,8 km/h
N (1 Bft)
- - 10 min 4 UV-I 640 W/m 17,7 km/h
N-NO (3 Bft)
Durchschnitt _ 8,8 C 74 % 1008,3 hPa #0,0 mm 2,5 km/h (1 Bft) N - #1:20 h 2 UV-I 205 W/m 9,4 km/h (2 Bft)